This is the latest recevied weather packets stored in our database for station/object OM8AKX-12. If no packets are shown the sender has not sent any weather packets the latest 10 day(s).
| Time | Temp. | Humidity | Pressure | Rain* | Wind** | Luminosity | Snow |
|---|---|---|---|---|---|---|---|
| 1787802674 | 14.44° C | 85% | 1014.9 hPa | - | - | - | - |
| 1787801774 | 15° C | 83% | 1015 hPa | - | - | - | - |
| 1787800874 | 15° C | 83% | 1015 hPa | - | - | - | - |
| 1787799973 | 15° C | 80% | 1014.9 hPa | - | - | - | - |
| 1787799073 | 16.11° C | 71% | 1015 hPa | - | - | - | - |
| 1787798173 | 17.22° C | 63% | 1015.1 hPa | - | - | - | - |
| 1787797273 | 17.22° C | 64% | 1015 hPa | - | - | - | - |
| 1787796373 | 16.67° C | 64% | 1014.9 hPa | - | - | - | - |
| 1787795473 | 16.67° C | 64% | 1014.9 hPa | - | - | - | - |
| 1787794573 | 16.67° C | 62% | 1014.9 hPa | - | - | - | - |
| 1787793673 | 17.22° C | 62% | 1014.8 hPa | - | - | - | - |
| 1787792773 | 16.67° C | 63% | 1014.9 hPa | - | - | - | - |
| 1787791873 | 17.22° C | 62% | 1014.8 hPa | - | - | - | - |
| 1787790973 | 17.78° C | 57% | 1014.7 hPa | - | - | - | - |
| 1787790073 | 17.78° C | 57% | 1014.8 hPa | - | - | - | - |
| 1787789173 | 17.78° C | 57% | 1014.9 hPa | - | - | - | - |
| 1787788284 | 17.78° C | 59% | 1015.9 hPa | - | - | - | - |
| 1787788273 | 17.78° C | 59% | 1015 hPa | - | - | - | - |
| 1787787373 | 17.78° C | 58% | 1014.7 hPa | - | - | - | - |
| 1787786473 | 17.78° C | 58% | 1015 hPa | - | - | - | - |
| 1787785573 | 18.33° C | 53% | 1014.9 hPa | - | - | - | - |
| 1787784672 | 18.89° C | 52% | 1014.9 hPa | - | - | - | - |
| 1787783772 | 18.89° C | 52% | 1014.9 hPa | - | - | - | - |
| 1787782872 | 18.33° C | 54% | 1014.9 hPa | - | - | - | - |
| 1787781972 | 18.33° C | 54% | 1014.9 hPa | - | - | - | - |
* Rain since midnight (hover to see other rain measurements)
** Current wind speed in m/s (hover to see current wind gust speed)